createdAt,value
2015-11-04T00:00:35.087Z,1.8
2015-11-04T00:01:37.406Z,1.9
2015-11-04T00:02:42.487Z,1.8
2015-11-04T00:03:41.553Z,1.8
2015-11-04T00:04:43.867Z,1.8
2015-11-04T00:05:45.933Z,1.8
2015-11-04T00:06:48.076Z,1.8
2015-11-04T00:07:49.798Z,1.8
2015-11-04T00:09:53.944Z,1.8
2015-11-04T00:10:56.025Z,1.8
2015-11-04T00:11:57.808Z,1.7
2015-11-04T00:12:59.905Z,1.7
2015-11-04T00:14:01.689Z,1.7
2015-11-04T00:15:03.786Z,1.7
2015-11-04T00:16:05.569Z,1.7
2015-11-04T00:17:07.697Z,1.7
2015-11-04T00:18:09.449Z,1.7
2015-11-04T00:19:11.514Z,1.7
2015-11-04T00:20:13.580Z,1.7
2015-11-04T00:21:15.645Z,1.7
2015-11-04T00:22:17.711Z,1.7
2015-11-04T00:23:19.775Z,1.7
2015-11-04T00:24:21.857Z,1.7
2015-11-04T00:25:23.922Z,1.7
2015-11-04T00:26:25.972Z,1.7
2015-11-04T00:27:28.116Z,1.7
2015-11-04T00:28:29.868Z,1.7
2015-11-04T00:29:31.667Z,1.7
2015-11-04T00:30:33.749Z,1.7
2015-11-04T00:31:35.563Z,1.7
2015-11-04T00:32:37.363Z,1.7
2015-11-04T00:33:39.178Z,1.6
2015-11-04T00:34:40.994Z,1.6
2015-11-04T00:35:45.824Z,1.6
2015-11-04T00:36:44.624Z,1.6
2015-11-04T00:37:46.486Z,1.6
2015-11-04T00:38:48.239Z,1.6
2015-11-04T00:39:50.055Z,1.6
2015-11-04T00:40:51.869Z,1.6
2015-11-04T00:41:53.668Z,1.6
2015-11-04T00:42:55.485Z,1.6
2015-11-04T00:43:57.299Z,1.6
2015-11-04T00:44:59.115Z,1.5
2015-11-04T00:46:00.915Z,1.5
2015-11-04T00:47:02.729Z,1.5
2015-11-04T00:48:04.591Z,1.5
2015-11-04T00:49:06.360Z,1.5
2015-11-04T00:50:08.159Z,1.5
2015-11-04T00:51:09.975Z,1.5
2015-11-04T00:52:11.790Z,1.5
2015-11-04T00:54:15.404Z,1.5
2015-11-04T00:55:17.220Z,1.5
2015-11-04T00:56:19.035Z,1.5
2015-11-04T00:57:20.584Z,1.5
2015-11-04T00:58:22.197Z,1.5
2015-11-04T00:59:23.965Z,1.4
2015-11-04T01:00:25.764Z,1.4
2015-11-04T01:02:29.130Z,1.4
2015-11-04T01:03:30.679Z,1.4
2015-11-04T01:04:32.229Z,1.4
2015-11-04T01:05:33.795Z,1.4
2015-11-04T01:06:35.359Z,1.4
2015-11-04T01:07:36.909Z,1.4
2015-11-04T01:08:38.521Z,1.4
2015-11-04T01:09:40.274Z,1.4
2015-11-04T01:10:41.823Z,1.4
2015-11-04T01:11:43.389Z,1.4
2015-11-04T01:12:44.939Z,1.4
2015-11-04T01:13:46.488Z,1.3
2015-11-04T01:14:48.053Z,1.3
2015-11-04T01:15:49.603Z,1.3
2015-11-04T01:16:51.152Z,1.3
2015-11-04T01:17:52.703Z,1.3
2015-11-04T01:18:54.315Z,1.3
2015-11-04T01:19:59.083Z,1.3
2015-11-04T01:20:57.648Z,1.3
2015-11-04T01:21:59.181Z,1.3
2015-11-04T01:23:00.748Z,1.3
2015-11-04T01:24:02.547Z,1.3
2015-11-04T01:25:04.112Z,1.3
2015-11-04T01:26:05.662Z,1.3
2015-11-04T01:27:07.227Z,1.3
2015-11-04T01:28:08.778Z,1.3
2015-11-04T01:29:10.389Z,1.3
2015-11-04T01:30:12.158Z,1.3
2015-11-04T01:31:13.691Z,1.3
2015-11-04T01:32:18.256Z,1.3
2015-11-04T01:33:16.806Z,1.3
2015-11-04T01:34:18.372Z,1.3
2015-11-04T01:35:19.906Z,1.3
2015-11-04T01:36:21.205Z,1.3
2015-11-04T01:37:22.520Z,1.3
2015-11-04T01:38:23.819Z,1.3
2015-11-04T01:39:25.182Z,1.3
2015-11-04T01:40:26.935Z,1.3
2015-11-04T01:41:28.218Z,1.3
2015-11-04T01:42:29.552Z,1.2
2015-11-04T01:43:30.836Z,1.2
2015-11-04T01:44:32.135Z,1.2
2015-11-04T01:45:33.451Z,1.2
2015-11-04T01:46:34.750Z,1.2
2015-11-04T01:47:36.035Z,1.2
2015-11-04T01:48:37.350Z,1.2
2015-11-04T01:49:38.696Z,1.2
2015-11-04T01:50:40.449Z,1.2
2015-11-04T01:51:41.749Z,1.2
2015-11-04T01:52:43.063Z,1.2
2015-11-04T01:53:44.613Z,1.2
2015-11-04T01:55:47.712Z,1.3
2015-11-04T01:56:49.293Z,1.2
2015-11-04T01:57:50.827Z,1.3
2015-11-04T01:58:52.393Z,1.3
2015-11-04T01:59:54.005Z,1.3
2015-11-04T02:00:55.774Z,1.2
2015-11-04T02:02:00.588Z,1.3
2015-11-04T02:02:59.388Z,1.3
2015-11-04T02:04:01.204Z,1.3
2015-11-04T02:05:03.018Z,1.3
2015-11-04T02:06:07.849Z,1.3
2015-11-04T02:07:06.665Z,1.3
2015-11-04T02:08:08.449Z,1.3
2015-11-04T02:10:12.143Z,1.3
2015-11-04T02:11:13.895Z,1.3
2015-11-04T02:12:15.710Z,1.3
2015-11-04T02:13:20.541Z,1.3
2015-11-04T02:14:19.340Z,1.3
2015-11-04T02:15:21.124Z,1.3
2015-11-04T02:16:23.205Z,1.3
2015-11-04T02:17:25.271Z,1.3
2015-11-04T02:18:27.335Z,1.3
2015-11-04T02:19:29.417Z,1.3
2015-11-04T02:20:31.545Z,1.3
2015-11-04T02:22:35.628Z,1.3
2015-11-04T02:23:37.943Z,1.3
2015-11-04T02:24:40.274Z,1.3
2015-11-04T02:25:42.354Z,1.3
2015-11-04T02:26:44.686Z,1.3
2015-11-04T02:28:49.082Z,1.3
2015-11-04T02:29:51.397Z,1.3
2015-11-04T02:30:53.790Z,1.3
2015-11-04T02:31:55.528Z,1.3
2015-11-04T02:32:57.874Z,1.3
2015-11-04T02:34:00.189Z,1.3
2015-11-04T02:35:02.520Z,1.3
2015-11-04T02:36:04.851Z,1.3
2015-11-04T02:37:07.167Z,1.3
2015-11-04T02:39:11.828Z,1.3
2015-11-04T02:40:14.159Z,1.3
2015-11-04T02:41:16.536Z,1.3
2015-11-04T02:42:18.289Z,1.3
2015-11-04T02:43:20.619Z,1.3
2015-11-04T02:45:25.282Z,1.3
2015-11-04T02:46:27.597Z,1.3
2015-11-04T02:47:29.928Z,1.3
2015-11-04T02:48:32.259Z,1.3
2015-11-04T02:49:34.590Z,1.3
2015-11-04T02:50:36.905Z,1.2
2015-11-04T02:51:39.298Z,1.2
2015-11-04T02:52:41.050Z,1.2
2015-11-04T02:53:43.382Z,1.3
2015-11-04T02:54:45.697Z,1.3
2015-11-04T02:55:48.044Z,1.2
2015-11-04T02:56:50.375Z,1.2
2015-11-04T02:57:52.700Z,1.2
2015-11-04T02:58:55.031Z,1.2
2015-11-04T02:59:57.347Z,1.2
2015-11-04T03:00:59.694Z,1.2
2015-11-04T03:02:02.074Z,1.2
2015-11-04T03:03:03.826Z,1.2
2015-11-04T03:04:06.173Z,1.2
2015-11-04T03:05:04.644Z,1.2
2015-11-04T03:06:03.128Z,1.3
2015-11-04T03:07:01.600Z,1.2
2015-11-04T03:08:00.071Z,1.2
2015-11-04T03:09:57.030Z,1.2
2015-11-04T03:10:55.517Z,1.2
2015-11-04T03:11:54.051Z,1.3
2015-11-04T03:12:55.819Z,1.3
2015-11-04T03:13:54.541Z,1.3
2015-11-04T03:14:53.013Z,1.3
2015-11-04T03:15:51.515Z,1.3
2015-11-04T03:16:49.987Z,1.3
2015-11-04T03:17:48.740Z,1.2
2015-11-04T03:18:47.476Z,1.2
2015-11-04T03:19:46.198Z,1.3
2015-11-04T03:20:44.935Z,1.3
2015-11-04T03:24:42.962Z,1.3
2015-11-04T03:25:41.698Z,1.3
2015-11-04T03:26:40.435Z,1.3
2015-11-04T03:27:39.174Z,1.3
2015-11-04T03:28:37.910Z,1.3
2015-11-04T03:29:36.647Z,1.3
2015-11-04T03:32:35.937Z,1.3
2015-11-04T03:33:37.689Z,1.3
2015-11-04T03:34:36.442Z,1.2
2015-11-04T03:36:30.882Z,1.3
2015-11-04T03:38:31.373Z,1.3
2015-11-04T03:39:27.078Z,1.3
2015-11-04T03:40:25.831Z,1.3
2015-11-04T03:41:24.615Z,1.3
2015-11-04T03:42:26.368Z,1.3
2015-11-04T03:43:25.120Z,1.3
2015-11-04T03:44:23.842Z,1.2
2015-11-04T03:45:22.578Z,1.2
2015-11-04T03:46:21.316Z,1.2
2015-11-04T03:47:20.054Z,1.2
2015-11-04T03:48:18.806Z,1.2
2015-11-04T03:50:16.264Z,1.2
2015-11-04T03:51:15.065Z,1.2
2015-11-04T03:52:16.817Z,1.2
2015-11-04T03:53:15.554Z,1.2
2015-11-04T03:54:14.291Z,1.2
2015-11-04T03:55:13.012Z,1.2
2015-11-04T03:56:11.765Z,1.2
2015-11-04T03:57:10.503Z,1.2
2015-11-04T03:58:09.240Z,1.2
2015-11-04T03:59:07.978Z,1.2
2015-11-04T04:00:06.698Z,1.2
2015-11-04T04:01:05.511Z,1.2
2015-11-04T04:02:07.248Z,1.2
2015-11-04T04:03:09.017Z,1.2
2015-11-04T04:04:04.738Z,1.2
2015-11-04T04:06:05.259Z,1.2
2015-11-04T04:07:00.949Z,1.2
2015-11-04T04:07:59.670Z,1.2
2015-11-04T04:08:58.423Z,1.2
2015-11-04T04:09:57.144Z,1.1
2015-11-04T04:10:55.944Z,1.2
2015-11-04T04:11:57.697Z,1.2
2015-11-04T04:12:56.434Z,1.2
2015-11-04T04:13:55.172Z,1.2
2015-11-04T04:14:53.908Z,1.2
2015-11-04T04:15:52.646Z,1.2
2015-11-04T04:16:51.383Z,1.2
2015-11-04T04:17:50.120Z,1.2
2015-11-04T04:18:48.857Z,1.2
2015-11-04T04:19:47.609Z,1.2
2015-11-04T04:20:46.393Z,1.2
2015-11-04T04:21:48.146Z,1.2
2015-11-04T04:22:46.883Z,1.2
2015-11-04T04:23:45.620Z,1.2
2015-11-04T04:24:44.357Z,1.2
2015-11-04T04:25:43.094Z,1.2
2015-11-04T04:26:41.832Z,1.2
2015-11-04T04:27:40.569Z,1.2
2015-11-04T04:28:39.307Z,1.2
2015-11-04T04:29:38.043Z,1.2
2015-11-04T04:30:37.093Z,1.2
2015-11-04T04:31:38.860Z,1.2
2015-11-04T04:32:37.848Z,1.2
2015-11-04T04:33:36.835Z,1.2
2015-11-04T04:34:36.087Z,1.2
2015-11-04T04:35:35.075Z,1.2
2015-11-04T04:36:34.090Z,1.2
2015-11-04T04:37:33.062Z,1.2
2015-11-04T04:38:32.065Z,1.2
2015-11-04T04:39:31.052Z,1.2
2015-11-04T04:40:33.118Z,1.2
2015-11-04T04:41:31.870Z,1.2
2015-11-04T04:43:32.891Z,1.2
2015-11-04T04:45:28.115Z,1.2
2015-11-04T04:46:27.352Z,1.2
2015-11-04T04:47:26.605Z,1.2
2015-11-04T04:48:28.639Z,1.2
2015-11-04T04:49:27.876Z,1.2
2015-11-04T04:50:24.160Z,1.2
2015-11-04T04:51:25.912Z,1.2
2015-11-04T04:52:25.165Z,1.2
2015-11-04T04:53:24.168Z,1.2
2015-11-04T04:54:23.406Z,1.2
2015-11-04T04:55:22.659Z,1.2
2015-11-04T04:56:24.676Z,1.2
2015-11-04T04:58:19.636Z,1.2
2015-11-04T04:59:18.639Z,1.2
2015-11-04T05:00:17.687Z,1.2
2015-11-04T05:01:19.456Z,1.2
2015-11-04T05:02:18.443Z,1.2
2015-11-04T05:03:17.430Z,1.2
2015-11-04T05:04:16.433Z,1.2
2015-11-04T05:05:15.436Z,1.2
2015-11-04T05:06:14.422Z,1.2
2015-11-04T05:07:13.660Z,1.3
2015-11-04T05:08:12.663Z,1.2
2015-11-04T05:09:11.666Z,1.2
2015-11-04T05:10:10.965Z,1.2
2015-11-04T05:11:12.733Z,1.2
2015-11-04T05:12:11.719Z,1.2
2015-11-04T05:13:10.719Z,1.2
2015-11-04T05:14:09.708Z,1.2
2015-11-04T05:15:08.694Z,1.2
2015-11-04T05:16:07.697Z,1.2
2015-11-04T05:18:05.671Z,1.2
2015-11-04T05:19:04.690Z,1.2
2015-11-04T05:20:03.739Z,1.2
2015-11-04T05:21:05.491Z,1.2
2015-11-04T05:22:04.479Z,1.2
2015-11-04T05:23:03.482Z,1.2
2015-11-04T05:24:02.469Z,1.2
2015-11-04T05:25:01.472Z,1.2
2015-11-04T05:26:00.459Z,1.2
2015-11-04T05:26:59.446Z,1.2
2015-11-04T05:27:58.448Z,1.2
2015-11-04T05:28:57.435Z,1.2
2015-11-04T05:29:56.235Z,1.2
2015-11-04T05:30:57.988Z,1.2
2015-11-04T05:31:56.990Z,1.2
2015-11-04T05:32:55.993Z,1.2
2015-11-04T05:33:54.965Z,1.2
2015-11-04T05:34:53.718Z,1.2
2015-11-04T05:35:52.455Z,1.2
2015-11-04T05:36:54.207Z,1.2
2015-11-04T05:37:49.913Z,1.2
2015-11-04T05:38:48.666Z,1.2
2015-11-04T05:39:50.481Z,1.2
2015-11-04T05:40:49.218Z,1.2
2015-11-04T05:41:47.956Z,1.2
2015-11-04T05:42:49.724Z,1.2
2015-11-04T05:43:45.429Z,1.1
2015-11-04T05:44:44.167Z,1.2
2015-11-04T05:45:42.904Z,1.2
2015-11-04T05:46:41.656Z,1.1
2015-11-04T05:47:40.380Z,1.1
2015-11-04T05:48:39.117Z,1.1
2015-11-04T05:49:37.917Z,1.1
2015-11-04T05:50:39.685Z,1.1
2015-11-04T05:51:38.422Z,1.1
2015-11-04T05:52:37.160Z,1.1
2015-11-04T05:53:35.897Z,1.1
2015-11-04T05:54:34.618Z,1.1
2015-11-04T05:55:33.371Z,1.1
2015-11-04T05:56:32.108Z,1.1
2015-11-04T05:57:30.845Z,1.1
2015-11-04T05:58:29.597Z,1.1
2015-11-04T05:59:28.383Z,1.1
2015-11-04T06:00:30.136Z,1.1
2015-11-04T06:01:28.872Z,1.1
2015-11-04T06:02:27.624Z,1.1
2015-11-04T06:03:26.361Z,1.1
2015-11-04T06:04:25.099Z,1.1
2015-11-04T06:05:23.836Z,1.1
2015-11-04T06:06:22.573Z,1.1
2015-11-04T06:07:21.061Z,1.1
2015-11-04T06:08:19.797Z,1.1
2015-11-04T06:09:18.331Z,1.1
2015-11-04T06:10:20.084Z,1.1
2015-11-04T06:11:18.586Z,1.1
2015-11-04T06:12:17.058Z,1
2015-11-04T06:13:18.545Z,1
2015-11-04T06:14:17.861Z,1
2015-11-04T06:15:20.191Z,1
2015-11-04T06:16:22.522Z,0.9
2015-11-04T06:17:24.852Z,1
2015-11-04T06:18:27.184Z,0.9
2015-11-04T06:19:29.562Z,0.9
2015-11-04T06:20:31.330Z,1
2015-11-04T06:21:33.676Z,1
2015-11-04T06:22:36.008Z,1
2015-11-04T06:23:34.479Z,1
2015-11-04T06:24:36.796Z,1
2015-11-04T06:27:39.058Z,1
2015-11-04T06:30:34.807Z,1
2015-11-04T06:33:30.240Z,1
2015-11-04T06:34:28.722Z,1
2015-11-04T06:37:24.162Z,1
2015-11-04T06:38:22.648Z,1
2015-11-04T06:39:21.446Z,1
2015-11-04T06:40:23.198Z,1.1
2015-11-04T06:41:24.966Z,1.1
2015-11-04T06:42:20.672Z,1.1
2015-11-04T06:43:19.424Z,1.1
2015-11-04T06:44:18.160Z,1.1
2015-11-04T06:46:18.666Z,1.1
2015-11-04T06:47:14.371Z,1.1
2015-11-04T06:48:13.108Z,1.1
2015-11-04T06:49:11.907Z,1.1
2015-11-04T06:50:13.660Z,1.2
2015-11-04T06:51:12.397Z,1.2
2015-11-04T06:52:14.180Z,1.2
2015-11-04T06:53:09.886Z,1.2
2015-11-04T06:54:08.624Z,1.2
2015-11-04T06:55:07.361Z,1.2
2015-11-04T06:56:06.095Z,1.2
2015-11-04T06:57:04.817Z,1.3
2015-11-04T06:58:03.569Z,1.2
2015-11-04T06:59:02.369Z,1.2
2015-11-04T07:00:04.122Z,1.3
2015-11-04T07:01:02.859Z,1.3
2015-11-04T07:02:01.596Z,1.3
2015-11-04T07:03:00.333Z,1.3
2015-11-04T07:03:59.070Z,1.3
2015-11-04T07:04:57.807Z,1.3
2015-11-04T07:05:56.544Z,1.3
2015-11-04T07:06:55.297Z,1.3
2015-11-04T07:07:54.034Z,1.3
2015-11-04T07:08:52.818Z,1.3
2015-11-04T07:09:54.571Z,1.3
2015-11-04T07:10:53.324Z,1.3
2015-11-04T07:11:52.061Z,1.4
2015-11-04T07:12:53.829Z,1.4
2015-11-04T07:13:52.551Z,1.4
2015-11-04T07:16:45.762Z,1.4
2015-11-04T07:17:44.498Z,1.4
2015-11-04T07:18:43.032Z,1.4
2015-11-04T07:19:44.785Z,1.4
2015-11-04T07:20:43.257Z,1.5
2015-11-04T07:21:41.760Z,1.5
2015-11-04T07:22:40.232Z,1.5
2015-11-04T07:24:37.206Z,1.5
2015-11-04T07:25:35.662Z,1.5
2015-11-04T07:26:34.146Z,1.5
2015-11-04T07:27:32.634Z,1.5
2015-11-04T07:28:35.011Z,1.6
2015-11-04T07:29:36.782Z,1.6
2015-11-04T07:30:39.112Z,1.6
2015-11-04T07:31:41.459Z,1.6
2015-11-04T07:32:43.759Z,1.6
2015-11-04T07:33:46.105Z,1.6
2015-11-04T07:34:48.421Z,1.6
2015-11-04T07:35:50.751Z,1.6
2015-11-04T07:36:52.832Z,1.7
2015-11-04T07:37:54.647Z,1.7
2015-11-04T07:38:56.541Z,1.6
2015-11-04T07:39:58.278Z,1.6
2015-11-04T07:41:00.109Z,1.6
2015-11-04T07:42:01.908Z,1.7
2015-11-04T07:43:03.723Z,1.7
2015-11-04T07:44:05.289Z,1.7
2015-11-04T07:45:06.839Z,1.7
2015-11-04T07:46:08.139Z,1.7
2015-11-04T07:47:09.453Z,1.6
2015-11-04T07:48:10.753Z,1.6
2015-11-04T07:49:12.130Z,1.7
2015-11-04T07:50:13.867Z,1.6
2015-11-04T07:51:15.167Z,1.7
2015-11-04T07:52:16.483Z,1.7
2015-11-04T07:53:17.766Z,1.7
2015-11-04T07:54:19.082Z,1.7
2015-11-04T07:55:20.380Z,1.7
2015-11-04T07:56:21.680Z,1.7
2015-11-04T07:57:22.980Z,1.7
2015-11-04T07:58:24.280Z,1.7
2015-11-04T07:59:25.658Z,1.7
2015-11-04T08:00:27.395Z,1.7
2015-11-04T08:01:28.710Z,1.8
2015-11-04T08:02:30.009Z,1.8
2015-11-04T08:03:31.059Z,1.8
2015-11-04T08:04:32.375Z,1.9
2015-11-04T08:05:33.674Z,1.9
2015-11-04T08:06:34.974Z,1.9
2015-11-04T08:07:36.273Z,1.9
2015-11-04T08:08:37.573Z,1.9
2015-11-04T08:09:38.935Z,2
2015-11-04T08:10:40.703Z,2
2015-11-04T08:11:41.987Z,2
2015-11-04T08:12:43.287Z,2.1
2015-11-04T08:13:44.587Z,2.1
2015-11-04T08:14:45.887Z,2.1
2015-11-04T08:15:47.232Z,2.1
2015-11-04T08:16:48.484Z,2.2
2015-11-04T08:17:49.815Z,2.2
2015-11-04T08:18:51.116Z,2.3
2015-11-04T08:19:52.493Z,2.3
2015-11-04T08:20:54.215Z,2.3
2015-11-04T08:21:55.514Z,2.4
2015-11-04T08:22:56.814Z,2.4
2015-11-04T08:23:58.129Z,2.5
2015-11-04T08:24:59.414Z,2.5
2015-11-04T08:26:00.712Z,2.5
2015-11-04T08:27:02.012Z,2.5
2015-11-04T08:28:03.312Z,2.5
2015-11-04T08:29:04.612Z,2.6
2015-11-04T08:30:05.709Z,2.6
2015-11-04T08:31:07.476Z,2.7
2015-11-04T08:32:08.511Z,2.7
2015-11-04T08:33:09.326Z,2.7
2015-11-04T08:34:10.094Z,2.7
2015-11-04T08:35:10.878Z,2.7
2015-11-04T08:36:11.678Z,2.8
2015-11-04T08:37:12.447Z,2.8
2015-11-04T08:38:13.230Z,2.8
2015-11-04T08:39:14.030Z,2.8
2015-11-04T08:40:14.860Z,2.8
2015-11-04T08:41:16.613Z,2.9
2015-11-04T08:42:17.414Z,2.8
2015-11-04T08:43:18.197Z,2.9
2015-11-04T08:44:18.981Z,2.9
2015-11-04T08:45:19.765Z,2.9
2015-11-04T08:46:20.549Z,2.9
2015-11-04T08:47:21.347Z,2.9
2015-11-04T08:48:21.865Z,2.9
2015-11-04T08:49:22.414Z,3
2015-11-04T08:50:22.980Z,3
2015-11-04T08:51:24.733Z,3.1
2015-11-04T08:52:25.266Z,3
2015-11-04T08:53:25.784Z,3.1
2015-11-04T08:54:26.319Z,3.1
2015-11-04T08:55:26.618Z,3.1
2015-11-04T08:56:26.886Z,3.2
2015-11-04T08:57:27.140Z,3.2
2015-11-04T08:58:27.408Z,3.2
2015-11-04T08:59:27.708Z,3.2
2015-11-04T09:00:28.022Z,3.2
2015-11-04T09:01:29.775Z,3.3
2015-11-04T09:02:30.044Z,3.3
2015-11-04T09:03:30.343Z,3.3
2015-11-04T09:04:30.331Z,3.3
2015-11-04T09:05:30.614Z,3.3
2015-11-04T09:06:30.649Z,3.3
2015-11-04T09:07:30.636Z,3.3
2015-11-04T09:08:30.670Z,3.4
2015-11-04T09:09:30.672Z,3.3
2015-11-04T09:10:30.503Z,3.4
2015-11-04T09:11:32.256Z,3.4
2015-11-04T09:12:32.009Z,3.4
2015-11-04T09:13:31.777Z,3.4
2015-11-04T09:14:31.530Z,3.5
2015-11-04T09:15:31.299Z,3.4
2015-11-04T09:16:31.051Z,3.4
2015-11-04T09:17:30.806Z,3.5
2015-11-04T09:18:30.573Z,3.5
2015-11-04T09:19:30.327Z,3.5
2015-11-04T09:20:30.142Z,3.5
2015-11-04T09:21:31.895Z,3.6
2015-11-04T09:22:31.663Z,3.6
2015-11-04T09:23:31.432Z,3.7
2015-11-04T09:24:31.169Z,3.7
2015-11-04T09:25:30.921Z,3.7
2015-11-04T09:26:30.690Z,3.6
2015-11-04T09:27:30.456Z,3.7
2015-11-04T09:28:30.208Z,3.7
2015-11-04T09:29:29.977Z,3.7
2015-11-04T09:30:29.792Z,3.8
2015-11-04T09:31:31.544Z,3.8
2015-11-04T09:32:31.297Z,3.9
2015-11-04T09:33:31.065Z,3.9
2015-11-04T09:34:30.818Z,3.9
2015-11-04T09:35:30.587Z,4
2015-11-04T09:36:30.339Z,4
2015-11-04T09:37:30.092Z,4.1
2015-11-04T09:38:29.861Z,4.1
2015-11-04T09:39:29.614Z,4.1
2015-11-04T09:40:29.429Z,4.2
2015-11-04T09:41:31.181Z,4.2
2015-11-04T09:42:30.684Z,4.2
2015-11-04T09:43:31.859Z,4.3
2015-11-04T09:44:31.362Z,4.2
2015-11-04T09:45:32.473Z,4.3
2015-11-04T09:46:28.961Z,4.4
2015-11-04T09:47:28.464Z,4.4
2015-11-04T09:48:27.716Z,4.4
2015-11-04T09:49:26.953Z,4.5
2015-11-04T09:50:26.253Z,4.5
2015-11-04T09:51:28.006Z,4.6
2015-11-04T09:52:27.242Z,4.6
2015-11-04T09:53:26.495Z,4.7
2015-11-04T09:54:28.764Z,4.7
2015-11-04T09:55:24.985Z,4.8
2015-11-04T09:56:24.222Z,4.9
2015-11-04T09:57:23.459Z,4.9
2015-11-04T09:58:22.696Z,5
2015-11-04T09:59:21.949Z,5
2015-11-04T10:00:21.249Z,5.1
2015-11-04T10:01:23.002Z,5.2
2015-11-04T10:02:22.238Z,5.3
2015-11-04T10:03:21.475Z,5.3
2015-11-04T10:04:20.728Z,5.4
2015-11-04T10:05:19.966Z,5.5
2015-11-04T10:06:19.203Z,5.6
2015-11-04T10:07:18.440Z,5.7
2015-11-04T10:08:20.458Z,5.7
2015-11-04T10:09:19.445Z,5.8
2015-11-04T10:11:16.949Z,5.9
2015-11-04T10:12:15.420Z,6
2015-11-04T10:14:12.346Z,6.1
2015-11-04T10:15:14.662Z,6.2
2015-11-04T10:16:16.993Z,6.2
2015-11-04T10:17:19.308Z,6.3
2015-11-04T10:18:21.624Z,6.4
2015-11-04T10:19:23.923Z,6.5
2015-11-04T10:21:27.788Z,6.6
2015-11-04T10:23:31.390Z,6.7
2015-11-04T10:24:33.189Z,6.7
2015-11-04T10:25:34.740Z,6.7
2015-11-04T10:26:36.288Z,6.8
2015-11-04T10:27:37.823Z,6.8
2015-11-04T10:28:39.232Z,6.8
2015-11-04T10:29:40.407Z,6.9
2015-11-04T10:30:41.753Z,6.9
2015-11-04T10:31:43.490Z,6.9
2015-11-04T10:32:44.774Z,6.9
2015-11-04T10:33:45.807Z,7
2015-11-04T10:34:46.826Z,7
2015-11-04T10:35:47.876Z,7
2015-11-04T10:36:48.644Z,7.1
2015-11-04T10:37:49.412Z,7.1
2015-11-04T10:38:50.182Z,7.2
2015-11-04T10:39:50.981Z,7.2
2015-11-04T10:40:51.796Z,7.2
2015-11-04T10:41:53.518Z,7.3
2015-11-04T10:42:54.286Z,7.3
2015-11-04T10:43:55.054Z,7.3
2015-11-04T10:44:55.573Z,7.4
2015-11-04T10:45:55.825Z,7.5
2015-11-04T10:46:56.093Z,7.4
2015-11-04T10:47:56.361Z,7.5
2015-11-04T10:48:56.598Z,7.5
2015-11-04T10:49:56.852Z,7.5
2015-11-04T10:50:56.901Z,7.6
2015-11-04T10:51:58.653Z,7.6
2015-11-04T10:52:58.641Z,7.6
2015-11-04T10:53:58.644Z,7.7
2015-11-04T10:54:58.631Z,7.7
2015-11-04T10:55:58.634Z,7.7
2015-11-04T10:56:58.368Z,7.7
2015-11-04T10:57:58.120Z,7.8
2015-11-04T10:58:57.858Z,7.8
2015-11-04T10:59:57.594Z,7.8
2015-11-04T11:00:57.395Z,7.8
2015-11-04T11:01:59.131Z,7.9
2015-11-04T11:02:58.603Z,7.9
2015-11-04T11:03:57.840Z,7.9
2015-11-04T11:04:57.077Z,8
2015-11-04T11:05:56.314Z,8
2015-11-04T11:06:55.536Z,8.1
2015-11-04T11:08:53.994Z,0
2015-11-04T11:09:53.216Z,8.1
2015-11-04T11:10:52.500Z,8.2
2015-11-04T11:11:54.221Z,8.2
2015-11-04T11:12:53.209Z,8.2
2015-11-04T11:13:52.164Z,8.3
2015-11-04T11:14:50.871Z,8.3
2015-11-04T11:15:49.592Z,8.3
2015-11-04T11:16:48.313Z,8.4
2015-11-04T11:17:47.019Z,8.4
2015-11-04T11:18:45.724Z,8.5
2015-11-04T11:19:44.430Z,8.5
2015-11-04T11:20:42.949Z,8.5
2015-11-04T11:21:44.671Z,8.5
2015-11-04T11:22:43.127Z,8.5
2015-11-04T11:23:41.598Z,8.6
2015-11-04T11:24:43.898Z,8.7
2015-11-04T11:25:46.197Z,8.7
2015-11-04T11:26:48.497Z,8.7
2015-11-04T11:27:50.546Z,8.7
2015-11-04T11:28:52.580Z,8.7
2015-11-04T11:29:54.630Z,8.8
2015-11-04T11:30:56.476Z,8.8
2015-11-04T11:31:58.198Z,8.9
2015-11-04T11:32:59.982Z,8.9
2015-11-04T11:35:03.551Z,8.9
2015-11-04T11:36:05.335Z,9
2015-11-04T11:37:06.868Z,9
2015-11-04T11:38:08.387Z,9
2015-11-04T11:39:09.670Z,9
2015-11-04T11:40:10.939Z,9
2015-11-04T11:41:12.254Z,9.1
2015-11-04T11:42:13.991Z,9.1
2015-11-04T11:43:15.259Z,9.1
2015-11-04T11:45:17.281Z,9.2
2015-11-04T11:46:18.299Z,9.2
2015-11-04T11:49:20.822Z,9.2
2015-11-04T11:50:21.591Z,9.3
2015-11-04T11:51:22.390Z,0
2015-11-04T11:52:24.128Z,9.3
2015-11-04T11:53:24.881Z,9.3
2015-11-04T11:54:25.648Z,9.3
2015-11-04T11:55:26.401Z,9.3
2015-11-04T11:56:27.153Z,9.3
2015-11-04T11:57:27.907Z,9.3
2015-11-04T11:58:28.659Z,9.3
2015-11-04T11:59:29.412Z,9.3
2015-11-04T12:00:30.181Z,9.3
2015-11-04T12:01:30.980Z,9.3
2015-11-04T12:02:32.702Z,9.3
2015-11-04T12:03:33.455Z,9.3
2015-11-04T12:04:33.958Z,9.3
2015-11-04T12:05:34.460Z,9.3
2015-11-04T12:06:34.947Z,9.3
2015-11-04T12:07:35.450Z,9.3
2015-11-04T12:08:38.952Z,9.3
2015-11-04T12:09:36.190Z,9.3
2015-11-04T12:10:36.427Z,9.3
2015-11-04T12:11:36.727Z,9.4
2015-11-04T12:12:38.448Z,9.3
2015-11-04T12:13:38.701Z,9.4
2015-11-04T12:14:38.939Z,9.4
2015-11-04T12:15:42.191Z,9.4
2015-11-04T12:16:39.428Z,9.4
2015-11-04T12:17:42.681Z,9.4
2015-11-04T12:18:39.902Z,9.5
2015-11-04T12:19:40.139Z,9.5
2015-11-04T12:20:40.392Z,9.4
2015-11-04T12:21:40.676Z,9.4
2015-11-04T12:22:42.398Z,9.4
2015-11-04T12:23:42.385Z,9.4
2015-11-04T12:24:42.372Z,9.5
2015-11-04T12:25:42.358Z,9.5
2015-11-04T12:26:42.347Z,9.5
2015-11-04T12:27:42.318Z,9.5
2015-11-04T12:28:42.570Z,9.4
2015-11-04T12:29:42.823Z,9.4
2015-11-04T12:30:43.044Z,9.5
2015-11-04T12:31:43.360Z,9.5
2015-11-04T12:32:45.082Z,9.5
2015-11-04T12:33:45.318Z,9.4
2015-11-04T12:34:45.305Z,9.5
2015-11-04T12:35:48.293Z,9.5
2015-11-04T12:36:45.261Z,9.5
2015-11-04T12:38:45.845Z,9.5
2015-11-04T12:40:46.615Z,9.5
2015-11-04T12:42:47.168Z,9.5
2015-11-04T12:43:49.951Z,9.5
2015-11-04T12:44:46.923Z,9.5
2015-11-04T12:45:46.910Z,9.4
2015-11-04T12:46:46.898Z,9.4
2015-11-04T12:47:46.884Z,9.4
2015-11-04T12:48:46.872Z,9.4
2015-11-04T12:49:46.859Z,9.4
2015-11-04T12:50:46.846Z,9.5
2015-11-04T12:51:46.881Z,9.5
2015-11-04T12:52:48.601Z,9.4
2015-11-04T12:53:48.589Z,9.5
2015-11-04T12:54:48.576Z,9.5
2015-11-04T12:55:48.563Z,9.5
2015-11-04T12:56:48.534Z,9.5
2015-11-04T12:57:48.522Z,9.5
2015-11-04T12:58:48.504Z,9.5
2015-11-04T12:59:48.490Z,9.5
2015-11-04T13:00:48.478Z,9.5
2015-11-04T13:01:48.512Z,9.6
2015-11-04T13:02:50.234Z,9.5
2015-11-04T13:03:50.220Z,9.5
2015-11-04T13:04:50.223Z,9.5
2015-11-04T13:05:52.961Z,9.5
2015-11-04T13:06:49.666Z,9.6
2015-11-04T13:07:49.670Z,9.5
2015-11-04T13:08:49.375Z,9.5
2015-11-04T13:09:49.362Z,9.5
2015-11-04T13:11:49.383Z,9.5
2015-11-04T13:14:51.079Z,9.5
2015-11-04T13:15:51.066Z,9.5
2015-11-04T13:16:51.053Z,9.5
2015-11-04T13:17:51.040Z,9.5
2015-11-04T13:18:51.027Z,9.6
2015-11-04T13:19:51.014Z,9.5
2015-11-04T13:20:50.986Z,9.6
2015-11-04T13:21:51.036Z,9.6
2015-11-04T13:22:52.757Z,9.6
2015-11-04T13:23:52.995Z,9.6
2015-11-04T13:24:53.232Z,9.7
2015-11-04T13:25:53.218Z,9.7
2015-11-04T13:26:53.206Z,9.7
2015-11-04T13:27:53.178Z,9.7
2015-11-04T13:28:53.164Z,9.7
2015-11-04T13:29:53.761Z,9.7
2015-11-04T13:30:53.154Z,9.7
2015-11-04T13:32:54.644Z,9.7
2015-11-04T13:33:54.380Z,9.7
2015-11-04T13:34:54.118Z,9.7
2015-11-04T13:35:53.839Z,9.7
2015-11-04T13:36:53.577Z,9.7
2015-11-04T13:37:53.298Z,9.8
2015-11-04T13:38:53.019Z,9.7
2015-11-04T13:40:52.493Z,9.8
2015-11-04T13:41:52.278Z,9.8
2015-11-04T13:42:53.999Z,9.8
2015-11-04T13:43:53.735Z,9.8
2015-11-04T13:44:53.208Z,9.8
2015-11-04T13:45:52.677Z,9.8
2015-11-04T13:46:52.148Z,9.9
2015-11-04T13:47:51.619Z,9.9
2015-11-04T13:48:51.091Z,9.9
2015-11-04T13:49:50.562Z,9.9
2015-11-04T13:50:50.034Z,9.9
2015-11-04T13:51:49.568Z,9.9
2015-11-04T13:52:51.290Z,10
2015-11-04T13:53:50.510Z,9.9
2015-11-04T13:54:49.967Z,9.9
2015-11-04T13:55:52.454Z,9.9
2015-11-04T13:56:48.659Z,10
2015-11-04T13:57:47.881Z,10
2015-11-04T13:58:47.087Z,10
2015-11-04T13:59:46.308Z,10
2015-11-04T14:01:47.814Z,10
2015-11-04T14:02:46.520Z,10
2015-11-04T14:04:47.728Z,10
2015-11-04T14:05:43.637Z,10
2015-11-04T14:06:42.608Z,10
2015-11-04T14:08:43.552Z,9.9
2015-11-04T14:09:39.210Z,9.9
2015-11-04T14:11:36.670Z,9.9
2015-11-04T14:12:38.391Z,9.9
2015-11-04T14:13:37.097Z,9.9
2015-11-04T14:14:35.786Z,9.9
2015-11-04T14:15:34.492Z,9.9
2015-11-04T14:16:33.183Z,9.9
2015-11-04T14:17:31.639Z,9.8
2015-11-04T14:18:30.345Z,9.8
2015-11-04T14:19:29.035Z,9.8
2015-11-04T14:20:27.738Z,9.8
2015-11-04T14:21:26.491Z,9.8
2015-11-04T14:22:28.228Z,9.8
2015-11-04T14:23:26.919Z,9.8
2015-11-04T14:24:25.608Z,9.7
2015-11-04T14:25:27.330Z,9.7
2015-11-04T14:26:23.020Z,9.7
2015-11-04T14:27:21.711Z,9.7
2015-11-04T14:28:20.432Z,9.7
2015-11-04T14:29:19.122Z,9.7
2015-11-04T14:30:17.827Z,9.7
2015-11-04T14:31:16.580Z,9.7
2015-11-04T14:32:18.318Z,9.6
2015-11-04T14:33:17.008Z,9.6
2015-11-04T14:34:15.980Z,9.6
2015-11-04T14:35:14.935Z,9.6
2015-11-04T14:36:13.891Z,9.6
2015-11-04T14:37:12.863Z,9.6
2015-11-04T14:38:11.819Z,9.6
2015-11-04T14:39:10.791Z,9.6
2015-11-04T14:40:09.730Z,9.5
2015-11-04T14:41:08.749Z,9.5
2015-11-04T14:42:10.486Z,9.5
2015-11-04T14:43:09.442Z,9.5
2015-11-04T14:44:08.397Z,9.5
2015-11-04T14:46:06.824Z,9.5
2015-11-04T14:47:06.046Z,9.5
2015-11-04T14:49:07.505Z,9.4
2015-11-04T14:50:03.695Z,9.4
2015-11-04T14:51:02.963Z,9.4
2015-11-04T14:52:04.701Z,9.3